Time;durP1;ratioP1;P1;durP2;ratioP2;P2;SDS_P1;SDS_P2;PMS_P1;PMS_P2;Temp;Humidity;BMP_temperature;BMP_pressure;BME280_temperature;BME280_humidity;BME280_pressure;Samples;Min_cycle;Max_cycle;Signal;HPM_P1;HPM_P2
2021/11/12 00:03:18;;;;;;;7.32;6.00;;;;;;;;;;10282030;28;20171;-67
2021/11/12 00:13:34;;;;;;;8.02;6.40;;;;;;;;;;10277059;28;20462;-67
2021/11/12 00:18:33;;;;;;;9.13;6.60;;;;;;;;;;10277235;28;20072;-66
2021/11/12 00:23:33;;;;;;;9.63;8.07;;;;;;;;;;10276609;28;20501;-66
2021/11/12 00:28:36;;;;;;;9.05;8.10;;;;;;;;;;10279088;28;20083;-66
2021/11/12 00:33:50;;;;;;;10.77;7.65;;;;;;;;;;10278973;28;20088;-66
2021/11/12 00:38:52;;;;;;;11.90;7.90;;;;;;;;;;10277722;28;20322;-66
2021/11/12 00:43:54;;;;;;;12.07;7.47;;;;;;;;;;10280275;28;20049;-66
2021/11/12 00:48:54;;;;;;;9.02;6.93;;;;;;;;;;10276234;28;20064;-66
2021/11/12 00:53:56;;;;;;;8.02;5.80;;;;;;;;;;10279185;28;20036;-67
2021/11/12 00:58:57;;;;;;;7.03;5.68;;;;;;;;;;10278383;28;20107;-67
2021/11/12 01:03:55;;;;;;;7.68;5.20;;;;;;;;;;10277998;28;20060;-67
2021/11/12 01:08:53;;;;;;;7.32;5.68;;;;;;;;;;10277808;28;20528;-67
2021/11/12 01:13:53;;;;;;;8.60;5.32;;;;;;;;;;10274803;28;20068;-67
2021/11/12 01:18:52;;;;;;;5.15;4.65;;;;;;;;;;10274937;28;20501;-65
2021/11/12 01:23:52;;;;;;;12.63;5.55;;;;;;;;;;10274743;28;20048;-66
2021/11/12 01:28:51;;;;;;;6.30;5.70;;;;;;;;;;10276838;28;20490;-67
2021/11/12 01:33:49;;;;;;;6.85;4.85;;;;;;;;;;10273698;28;20080;-67
2021/11/12 01:38:50;;;;;;;9.55;4.90;;;;;;;;;;10275861;28;20072;-67
2021/11/12 01:43:52;;;;;;;8.63;4.90;;;;;;;;;;10276893;28;20064;-67
2021/11/12 01:49:05;;;;;;;7.40;6.38;;;;;;;;;;10274047;28;20075;-64
2021/11/12 01:54:21;;;;;;;4.90;4.50;;;;;;;;;;10273507;28;20068;-67
2021/11/12 01:59:20;;;;;;;8.10;4.90;;;;;;;;;;10276557;28;20068;-67
2021/11/12 02:04:19;;;;;;;5.50;4.43;;;;;;;;;;10275988;28;20071;-67
2021/11/12 02:09:20;;;;;;;6.30;4.30;;;;;;;;;;10276205;28;20510;-67
2021/11/12 02:14:20;;;;;;;7.00;4.13;;;;;;;;;;10275681;28;20490;-66
2021/11/12 02:19:19;;;;;;;6.43;5.03;;;;;;;;;;10283701;28;20497;-67
2021/11/12 02:24:19;;;;;;;7.65;5.93;;;;;;;;;;10284998;28;20502;-66
2021/11/12 02:29:18;;;;;;;5.60;5.07;;;;;;;;;;10285114;28;20057;-66
2021/11/12 02:34:16;;;;;;;10.55;5.60;;;;;;;;;;10284702;28;20571;-66
2021/11/12 02:39:15;;;;;;;9.05;5.53;;;;;;;;;;10284343;28;20465;-67
2021/11/12 02:44:14;;;;;;;5.32;4.72;;;;;;;;;;10283452;28;20069;-66
2021/11/12 02:49:13;;;;;;;7.40;5.50;;;;;;;;;;10282333;28;20076;-68
2021/11/12 02:54:12;;;;;;;8.13;6.00;;;;;;;;;;10292163;28;20071;-67
2021/11/12 02:59:11;;;;;;;8.45;5.43;;;;;;;;;;10297506;28;20072;-67
2021/11/12 03:04:11;;;;;;;11.65;5.90;;;;;;;;;;10283578;28;20091;-67
2021/11/12 03:09:11;;;;;;;6.90;6.03;;;;;;;;;;10279194;28;20425;-67
2021/11/12 03:14:11;;;;;;;23.45;15.32;;;;;;;;;;10279598;28;20516;-66
2021/11/12 03:19:12;;;;;;;9.45;7.72;;;;;;;;;;10280435;28;20075;-66
2021/11/12 03:24:13;;;;;;;14.82;10.85;;;;;;;;;;10287024;28;20074;-66
2021/11/12 04:06:28;;;;;;;6.45;5.65;;;;;;;;;;10284501;28;20083;-66
2021/11/12 04:22:20;;;;;;;6.82;6.13;;;;;;;;;;10283650;28;19963;-66
2021/11/12 05:09:59;;;;;;;11.25;8.90;;;;;;;;;;10278541;28;20045;-67
2021/11/12 05:26:11;;;;;;;11.30;8.45;;;;;;;;;;10273667;28;20080;-67
2021/11/12 05:47:01;;;;;;;15.60;12.10;;;;;;;;;;10278737;28;20303;-68
2021/11/12 05:52:15;;;;;;;18.83;12.93;;;;;;;;;;10274632;28;20075;-68
2021/11/12 05:57:16;;;;;;;17.27;13.63;;;;;;;;;;10273002;28;20076;-68
2021/11/12 06:02:16;;;;;;;22.27;17.45;;;;;;;;;;10287914;28;20064;-68
2021/11/12 06:07:14;;;;;;;21.30;19.20;;;;;;;;;;10268132;28;20091;-68
2021/11/12 06:12:13;;;;;;;21.05;16.15;;;;;;;;;;10272197;28;20068;-67
2021/11/12 06:17:13;;;;;;;24.83;18.10;;;;;;;;;;10275367;28;20304;-67
2021/11/12 06:22:11;;;;;;;21.10;14.48;;;;;;;;;;10275548;28;20083;-68
2021/11/12 06:27:10;;;;;;;24.40;17.27;;;;;;;;;;10273847;28;20072;-67
2021/11/12 06:32:08;;;;;;;21.83;17.38;;;;;;;;;;10276043;28;20111;-67
2021/11/12 06:37:08;;;;;;;26.27;18.88;;;;;;;;;;10275035;28;20072;-68
2021/11/12 06:42:13;;;;;;;25.17;19.13;;;;;;;;;;10274864;28;20072;-67
2021/11/12 06:52:31;;;;;;;30.80;21.73;;;;;;;;;;10272288;28;20612;-67
2021/11/12 06:57:29;;;;;;;26.70;20.63;;;;;;;;;;10270585;28;20071;-68
2021/11/12 07:02:28;;;;;;;26.35;20.10;;;;;;;;;;10273358;28;20095;-68
2021/11/12 07:07:28;;;;;;;23.48;17.35;;;;;;;;;;10279762;28;20091;-68
2021/11/12 07:12:27;;;;;;;29.77;20.85;;;;;;;;;;10281421;28;20485;-68
2021/11/12 07:17:26;;;;;;;26.52;22.50;;;;;;;;;;10278674;28;20068;-68
2021/11/12 07:22:24;;;;;;;30.90;18.35;;;;;;;;;;10279615;28;20060;-68
2021/11/12 07:27:22;;;;;;;25.17;19.38;;;;;;;;;;10278279;28;20485;-67
2021/11/12 07:32:42;;;;;;;26.75;21.15;;;;;;;;;;10277762;28;20072;-68
2021/11/12 07:37:40;;;;;;;63.03;46.08;;;;;;;;;;10279147;28;20065;-66
2021/11/12 07:42:52;;;;;;;33.28;24.92;;;;;;;;;;10281226;28;20068;-65
2021/11/12 07:47:52;;;;;;;35.13;25.35;;;;;;;;;;10281222;28;20077;-67
2021/11/12 07:52:50;;;;;;;37.35;26.05;;;;;;;;;;10280879;28;20064;-66
2021/11/12 07:57:49;;;;;;;32.75;24.10;;;;;;;;;;10280623;28;20095;-66
2021/11/12 08:02:47;;;;;;;37.22;27.90;;;;;;;;;;10280693;28;20174;-66
2021/11/12 08:07:48;;;;;;;46.20;32.60;;;;;;;;;;10279311;28;20076;-66
2021/11/12 08:12:56;;;;;;;37.08;27.55;;;;;;;;;;10275822;28;20107;-67
2021/11/12 08:18:05;;;;;;;36.70;29.08;;;;;;;;;;10277515;28;20083;-66
2021/11/12 08:23:15;;;;;;;114.10;79.28;;;;;;;;;;10277520;28;20073;-66
2021/11/12 08:28:26;;;;;;;45.97;31.85;;;;;;;;;;10275031;28;20075;-67
2021/11/12 08:33:31;;;;;;;36.90;27.58;;;;;;;;;;10278781;28;20068;-68
2021/11/12 08:38:38;;;;;;;52.83;33.70;;;;;;;;;;10276474;28;20071;-68
2021/11/12 08:43:39;;;;;;;36.22;27.17;;;;;;;;;;10278627;28;20090;-68
2021/11/12 08:48:42;;;;;;;33.97;26.17;;;;;;;;;;10278146;28;20072;-67
2021/11/12 08:53:43;;;;;;;30.95;25.30;;;;;;;;;;10274016;28;20075;-67
2021/11/12 08:58:42;;;;;;;33.97;27.25;;;;;;;;;;10274456;28;20098;-67
2021/11/12 09:03:41;;;;;;;38.30;28.00;;;;;;;;;;10277467;28;20107;-67
2021/11/12 09:08:40;;;;;;;37.53;30.17;;;;;;;;;;10277361;28;20112;-67
2021/11/12 09:13:46;;;;;;;35.28;28.45;;;;;;;;;;10277182;28;20090;-67
2021/11/12 09:18:45;;;;;;;35.55;27.60;;;;;;;;;;10273244;28;20064;-68
2021/11/12 09:23:43;;;;;;;33.95;27.63;;;;;;;;;;10273660;28;20081;-68
2021/11/12 09:28:43;;;;;;;51.75;34.83;;;;;;;;;;10276929;28;20068;-68
2021/11/12 09:33:41;;;;;;;44.78;28.90;;;;;;;;;;10276278;28;20079;-67
2021/11/12 09:38:40;;;;;;;36.72;27.35;;;;;;;;;;10272396;28;20056;-68
2021/11/12 09:43:38;;;;;;;39.50;30.33;;;;;;;;;;10272574;28;20451;-68
2021/11/12 09:48:38;;;;;;;35.88;28.30;;;;;;;;;;10276242;28;20079;-67
2021/11/12 09:53:37;;;;;;;37.83;30.00;;;;;;;;;;10276293;28;20521;-67
2021/11/12 09:58:36;;;;;;;35.28;27.98;;;;;;;;;;10277983;28;20045;-68
2021/11/12 10:03:42;;;;;;;34.38;25.70;;;;;;;;;;10271934;28;20619;-67
2021/11/12 10:08:42;;;;;;;43.05;28.65;;;;;;;;;;10273372;28;20386;-68
2021/11/12 10:13:42;;;;;;;34.35;27.73;;;;;;;;;;10275994;28;20067;-68
2021/11/12 10:18:58;;;;;;;36.08;27.80;;;;;;;;;;10277158;28;20045;-67
2021/11/12 10:24:00;;;;;;;36.50;27.45;;;;;;;;;;10278820;28;20072;-68
2021/11/12 10:29:03;;;;;;;37.35;28.90;;;;;;;;;;10276207;28;20391;-68
2021/11/12 10:34:11;;;;;;;31.60;25.42;;;;;;;;;;10275320;28;20080;-68
2021/11/12 10:39:11;;;;;;;40.35;28.15;;;;;;;;;;10284253;28;20071;-68
2021/11/12 10:44:12;;;;;;;38.60;25.80;;;;;;;;;;10283431;28;20076;-68
2021/11/12 10:49:24;;;;;;;35.13;26.33;;;;;;;;;;10285212;28;20065;-68
2021/11/12 10:54:42;;;;;;;34.17;25.77;;;;;;;;;;10284097;28;20065;-67
2021/11/12 10:59:58;;;;;;;36.90;28.17;;;;;;;;;;10283703;28;20506;-68
2021/11/12 11:04:58;;;;;;;32.83;25.90;;;;;;;;;;10285189;28;20135;-68
2021/11/12 11:09:58;;;;;;;33.35;26.02;;;;;;;;;;10282707;28;20068;-68
2021/11/12 11:15:09;;;;;;;35.38;24.90;;;;;;;;;;10282515;28;20068;-67
2021/11/12 11:20:09;;;;;;;36.13;28.15;;;;;;;;;;10283047;28;20466;-68
2021/11/12 11:25:08;;;;;;;38.85;29.63;;;;;;;;;;10285017;28;20068;-68
2021/11/12 11:30:07;;;;;;;34.10;26.38;;;;;;;;;;10282298;28;20061;-68
2021/11/12 11:35:06;;;;;;;35.47;24.83;;;;;;;;;;10277654;28;20115;-67
2021/11/12 11:40:06;;;;;;;27.70;22.42;;;;;;;;;;10277189;28;20404;-67
2021/11/12 11:45:07;;;;;;;27.73;22.92;;;;;;;;;;10283783;28;20079;-67
2021/11/12 11:50:19;;;;;;;47.67;26.30;;;;;;;;;;10280366;28;20564;-67
2021/11/12 11:55:35;;;;;;;45.17;26.20;;;;;;;;;;10281207;28;20450;-67
2021/11/12 12:00:35;;;;;;;29.85;24.92;;;;;;;;;;10298757;28;20501;-67
2021/11/12 12:06:02;;;;;;;31.65;25.60;;;;;;;;;;10281635;28;20071;-68
2021/11/12 12:11:15;;;;;;;39.05;27.50;;;;;;;;;;10278754;28;20079;-68
2021/11/12 12:16:22;;;;;;;37.42;27.90;;;;;;;;;;10276000;28;20067;-68
2021/11/12 12:33:13;;;;;;;39.42;26.77;;;;;;;;;;10276678;28;20045;-68
2021/11/12 13:21:19;;;;;;;79.50;37.00;;;;;;;;;;10263027;28;20075;-66
2021/11/12 13:26:17;;;;;;;127.77;64.53;;;;;;;;;;10274658;28;20073;-68
2021/11/12 13:31:18;;;;;;;120.43;57.92;;;;;;;;;;10278167;28;20051;-68
2021/11/12 13:36:23;;;;;;;99.15;53.95;;;;;;;;;;10273648;28;20092;-69
2021/11/12 13:41:22;;;;;;;77.97;44.78;;;;;;;;;;10272919;28;20088;-67
2021/11/12 13:46:20;;;;;;;69.22;38.83;;;;;;;;;;10274607;28;20076;-67
2021/11/12 13:51:25;;;;;;;87.07;50.13;;;;;;;;;;10272548;28;20530;-67
2021/11/12 13:56:24;;;;;;;72.85;40.33;;;;;;;;;;10273688;28;20064;-68
2021/11/12 14:01:23;;;;;;;74.25;40.63;;;;;;;;;;10273468;28;20064;-68
2021/11/12 14:06:32;;;;;;;68.47;39.65;;;;;;;;;;10272176;28;20065;-66
2021/11/12 14:11:31;;;;;;;63.05;38.72;;;;;;;;;;10273392;28;20068;-67
2021/11/12 14:16:32;;;;;;;66.00;41.88;;;;;;;;;;10274606;28;20532;-67
2021/11/12 14:21:38;;;;;;;64.50;37.75;;;;;;;;;;10274607;28;20107;-68
2021/11/12 14:26:40;;;;;;;69.68;44.60;;;;;;;;;;10272954;28;20075;-68
2021/11/12 14:37:23;;;;;;;74.88;48.33;;;;;;;;;;10267782;28;20447;-68
2021/11/12 14:42:46;;;;;;;147.35;89.55;;;;;;;;;;10274894;28;20096;-68
2021/11/12 14:47:56;;;;;;;105.70;79.40;;;;;;;;;;10276981;28;20073;-67
2021/11/12 14:53:15;;;;;;;74.57;53.30;;;;;;;;;;10271625;28;20069;-68
2021/11/12 14:58:15;;;;;;;69.75;49.55;;;;;;;;;;10273697;28;20089;-68
2021/11/12 15:03:19;;;;;;;84.73;61.57;;;;;;;;;;10276664;28;20083;-68
2021/11/12 15:08:21;;;;;;;106.60;68.28;;;;;;;;;;10276256;28;20478;-68
2021/11/12 15:13:19;;;;;;;92.50;59.15;;;;;;;;;;10273409;28;20088;-68
2021/11/12 15:18:18;;;;;;;87.10;57.05;;;;;;;;;;10272445;28;20068;-68
2021/11/12 15:23:30;;;;;;;96.53;69.18;;;;;;;;;;10274512;28;20077;-69
2021/11/12 15:28:37;;;;;;;85.70;59.50;;;;;;;;;;10283938;28;20064;-68
2021/11/12 15:33:35;;;;;;;68.57;50.95;;;;;;;;;;10277588;28;20045;-68
2021/11/12 15:38:37;;;;;;;85.30;56.25;;;;;;;;;;10277959;28;20426;-68
2021/11/12 15:43:43;;;;;;;142.25;85.43;;;;;;;;;;10282780;28;20049;-68
2021/11/12 15:48:43;;;;;;;113.80;71.25;;;;;;;;;;10279095;28;20083;-68
2021/11/12 15:53:46;;;;;;;102.95;60.72;;;;;;;;;;10278853;28;20376;-68
2021/11/12 15:58:59;;;;;;;78.03;49.78;;;;;;;;;;10278767;28;20071;-68
2021/11/12 16:09:41;;;;;;;78.20;52.58;;;;;;;;;;10278562;28;20057;-67
2021/11/12 16:14:47;;;;;;;84.32;57.50;;;;;;;;;;10282828;28;20068;-67
2021/11/12 16:19:49;;;;;;;75.03;53.95;;;;;;;;;;10282525;28;20045;-66
2021/11/12 16:24:59;;;;;;;115.78;74.60;;;;;;;;;;10278462;28;20479;-67
2021/11/12 16:30:03;;;;;;;124.80;86.85;;;;;;;;;;10274734;28;20061;-67
2021/11/12 16:35:02;;;;;;;89.03;68.40;;;;;;;;;;10277352;28;20068;-68
2021/11/12 16:40:03;;;;;;;63.15;46.25;;;;;;;;;;10275008;28;20529;-68
2021/11/12 16:45:05;;;;;;;58.35;39.38;;;;;;;;;;10277273;28;20071;-68
2021/11/12 16:55:38;;;;;;;72.15;54.30;;;;;;;;;;10263352;28;20670;-68
2021/11/12 17:05:58;;;;;;;79.22;53.22;;;;;;;;;;10267446;28;20088;-68
2021/11/12 17:11:13;;;;;;;66.78;45.80;;;;;;;;;;10274237;28;20068;-66
2021/11/12 17:22:10;;;;;;;60.58;45.50;;;;;;;;;;10281667;28;20377;-69
2021/11/12 17:48:31;;;;;;;83.50;54.78;;;;;;;;;;10275034;28;20061;-68
2021/11/12 18:04:05;;;;;;;107.78;74.53;;;;;;;;;;10274859;28;20079;-69
2021/11/12 18:09:35;;;;;;;125.35;86.93;;;;;;;;;;10279966;28;20067;-70
2021/11/12 21:48:26;;;;;;;34.05;22.48;;;;;;;;;;10295316;28;20067;-67
2021/11/12 21:53:27;;;;;;;32.92;24.00;;;;;;;;;;10275144;28;20306;-66
2021/11/12 21:58:27;;;;;;;30.23;23.67;;;;;;;;;;10275393;28;20064;-66
2021/11/12 22:03:27;;;;;;;42.63;29.88;;;;;;;;;;10277568;28;20092;-66
2021/11/12 22:08:28;;;;;;;65.00;43.60;;;;;;;;;;10271873;28;20061;-65
2021/11/12 22:13:27;;;;;;;65.15;45.40;;;;;;;;;;10275212;28;20065;-65
2021/11/12 22:18:26;;;;;;;64.47;40.63;;;;;;;;;;10280965;28;20083;-66
2021/11/12 22:23:27;;;;;;;49.55;36.00;;;;;;;;;;10274641;28;20502;-65
2021/11/12 22:28:43;;;;;;;50.72;35.45;;;;;;;;;;10287678;28;20099;-67
2021/11/12 22:33:42;;;;;;;52.30;37.60;;;;;;;;;;10278150;28;20084;-66
2021/11/12 22:38:41;;;;;;;53.30;37.30;;;;;;;;;;10284006;28;20056;-67
2021/11/12 22:43:40;;;;;;;68.82;45.22;;;;;;;;;;10283731;28;20462;-67
2021/11/12 22:48:38;;;;;;;53.20;38.58;;;;;;;;;;10281427;28;20525;-67
2021/11/12 22:53:37;;;;;;;64.22;47.08;;;;;;;;;;10281038;28;20616;-67
2021/11/12 22:58:36;;;;;;;104.30;67.78;;;;;;;;;;10287886;28;20045;-67
2021/11/12 23:03:35;;;;;;;86.00;57.40;;;;;;;;;;10283056;28;20513;-66
2021/11/12 23:08:33;;;;;;;76.25;49.92;;;;;;;;;;10264843;28;20076;-66
2021/11/12 23:13:32;;;;;;;32.92;25.55;;;;;;;;;;10284678;28;20072;-65
2021/11/12 23:18:32;;;;;;;30.55;23.50;;;;;;;;;;10284344;28;20126;-66
2021/11/12 23:23:31;;;;;;;28.63;23.17;;;;;;;;;;10286542;28;20536;-66
2021/11/12 23:28:30;;;;;;;32.22;23.23;;;;;;;;;;10281892;28;20076;-66
2021/11/12 23:33:28;;;;;;;28.35;22.10;;;;;;;;;;10279894;28;20498;-65
2021/11/12 23:38:28;;;;;;;27.13;19.70;;;;;;;;;;10280385;28;20460;-67
2021/11/12 23:43:26;;;;;;;25.67;18.85;;;;;;;;;;10277006;28;20442;-67
2021/11/12 23:48:25;;;;;;;28.45;20.02;;;;;;;;;;10275536;28;20064;-67
2021/11/12 23:53:23;;;;;;;29.40;20.92;;;;;;;;;;10278119;28;20064;-66
2021/11/12 23:58:23;;;;;;;27.92;20.65;;;;;;;;;;10278441;28;20061;-67
